createdAt,value
2018-06-14T00:00:46.686Z,12.57
2018-06-14T00:03:14.231Z,9.50
2018-06-14T00:05:41.812Z,8.37
2018-06-14T00:08:09.390Z,10.23
2018-06-14T00:10:36.947Z,11.70
2018-06-14T00:13:04.646Z,9.47
2018-06-14T00:15:32.067Z,12.47
2018-06-14T00:17:59.627Z,9.37
2018-06-14T00:20:27.216Z,10.87
2018-06-14T00:22:54.755Z,12.47
2018-06-14T00:25:22.395Z,11.63
2018-06-14T00:27:50.038Z,10.00
2018-06-14T00:30:17.573Z,8.03
2018-06-14T00:32:45.151Z,12.50
2018-06-14T00:35:12.768Z,8.83
2018-06-14T00:37:40.353Z,12.07
2018-06-14T00:40:07.868Z,9.50
2018-06-14T00:42:35.428Z,10.00
2018-06-14T00:45:02.956Z,8.90
2018-06-14T00:47:30.602Z,10.13
2018-06-14T00:49:58.212Z,8.47
2018-06-14T00:52:25.862Z,9.77
2018-06-14T00:54:53.456Z,10.50
2018-06-14T00:57:23.001Z,13.23
2018-06-14T00:59:50.621Z,14.00
2018-06-14T01:02:18.222Z,11.70
2018-06-14T01:04:45.961Z,10.30
2018-06-14T01:07:13.607Z,10.70
2018-06-14T01:09:41.335Z,11.63
2018-06-14T01:12:08.998Z,11.10
2018-06-14T01:14:36.618Z,11.40
2018-06-14T01:17:04.471Z,12.03
2018-06-14T01:19:32.126Z,11.10
2018-06-14T01:21:59.791Z,12.20
2018-06-14T01:24:27.414Z,14.20
2018-06-14T01:26:55.532Z,11.80
2018-06-14T01:29:23.456Z,14.93
2018-06-14T01:31:51.026Z,14.10
2018-06-14T01:34:18.742Z,12.10
2018-06-14T01:36:46.424Z,15.23
2018-06-14T01:39:14.022Z,15.03
2018-06-14T01:41:41.653Z,13.87
2018-06-14T01:44:09.237Z,13.73
2018-06-14T01:46:36.857Z,15.97
2018-06-14T01:49:04.517Z,10.77
2018-06-14T01:51:32.138Z,11.70
2018-06-14T01:53:59.778Z,12.73
2018-06-14T01:56:27.478Z,14.27
2018-06-14T01:58:54.977Z,15.13
2018-06-14T02:01:22.563Z,13.73
2018-06-14T02:03:50.392Z,13.40
2018-06-14T02:06:17.928Z,14.63
2018-06-14T02:08:45.514Z,13.73
2018-06-14T02:11:13.144Z,18.50
2018-06-14T02:13:40.823Z,17.47
2018-06-14T02:16:09.194Z,15.90
2018-06-14T02:18:38.677Z,15.50
2018-06-14T02:21:06.502Z,12.37
2018-06-14T02:23:34.212Z,13.60
2018-06-14T02:26:01.882Z,15.80
2018-06-14T02:28:29.458Z,17.70
2018-06-14T02:30:57.107Z,13.27
2018-06-14T02:33:24.754Z,16.40
2018-06-14T02:35:52.897Z,17.97
2018-06-14T02:38:22.325Z,13.23
2018-06-14T02:40:50.464Z,14.60
2018-06-14T02:43:18.272Z,15.80
2018-06-14T02:45:45.932Z,14.73
2018-06-14T02:48:13.515Z,23.47
2018-06-14T02:50:41.112Z,18.20
2018-06-14T02:53:08.758Z,14.87
2018-06-14T02:55:36.419Z,14.77
2018-06-14T02:58:04.113Z,16.17
2018-06-14T03:00:31.678Z,13.63
2018-06-14T03:02:59.519Z,16.87
2018-06-14T03:05:27.207Z,19.27
2018-06-14T03:07:54.757Z,11.60
2018-06-14T03:10:22.278Z,15.40
2018-06-14T03:12:49.753Z,14.77
2018-06-14T03:15:17.398Z,12.03
2018-06-14T03:17:45.054Z,15.50
2018-06-14T03:20:12.691Z,16.20
2018-06-14T03:22:40.362Z,15.73
2018-06-14T03:25:08.016Z,16.00
2018-06-14T03:27:35.573Z,15.87
2018-06-14T03:30:03.430Z,13.73
2018-06-14T03:32:31.034Z,15.83
2018-06-14T03:34:58.678Z,15.60
2018-06-14T03:37:26.278Z,17.03
2018-06-14T03:39:53.907Z,15.13
2018-06-14T03:42:21.514Z,19.93
2018-06-14T03:44:49.217Z,15.23
2018-06-14T03:47:16.792Z,15.40
2018-06-14T03:49:44.307Z,17.97
2018-06-14T03:52:12.623Z,14.53
2018-06-14T03:54:40.247Z,17.17
2018-06-14T03:57:08.068Z,19.37
2018-06-14T03:59:35.854Z,22.87
2018-06-14T04:02:03.872Z,15.00
2018-06-14T04:04:31.490Z,20.30
2018-06-14T04:06:59.115Z,13.50
2018-06-14T04:09:26.748Z,14.40
2018-06-14T04:11:54.368Z,16.43
2018-06-14T04:14:21.953Z,14.27
2018-06-14T04:16:49.555Z,17.03
2018-06-14T04:19:17.047Z,19.30
2018-06-14T04:21:44.648Z,12.10
2018-06-14T04:24:12.253Z,14.20
2018-06-14T04:26:39.842Z,17.93
2018-06-14T04:29:07.488Z,22.77
2018-06-14T04:31:35.088Z,17.47
2018-06-14T04:34:02.712Z,14.23
2018-06-14T04:36:30.320Z,11.87
2018-06-14T04:38:57.942Z,12.70
2018-06-14T04:41:25.558Z,10.13
2018-06-14T04:43:53.178Z,10.93
2018-06-14T04:46:20.789Z,10.47
2018-06-14T04:48:48.380Z,9.87
2018-06-14T04:51:15.983Z,9.93
2018-06-14T04:53:43.577Z,10.70
2018-06-14T04:56:12.514Z,12.17
2018-06-14T04:58:40.118Z,11.83
2018-06-14T05:01:08.113Z,14.47
2018-06-14T05:03:36.054Z,10.30
2018-06-14T05:19:03.363Z,12.10
2018-06-14T05:21:30.869Z,7.70
2018-06-14T05:23:58.439Z,9.30
2018-06-14T05:26:26.116Z,10.87
2018-06-14T05:28:53.814Z,6.87
2018-06-14T05:31:21.479Z,5.30
2018-06-14T05:33:49.069Z,7.40
2018-06-14T05:36:16.855Z,6.20
2018-06-14T05:38:44.441Z,6.03
2018-06-14T05:41:12.087Z,6.03
2018-06-14T05:43:39.690Z,6.00
2018-06-14T05:46:07.374Z,6.93
2018-06-14T05:48:34.981Z,4.33
2018-06-14T05:51:02.619Z,6.10
2018-06-14T05:53:30.221Z,6.70
2018-06-14T05:55:57.814Z,5.87
2018-06-14T05:58:25.489Z,7.17
2018-06-14T06:00:53.090Z,6.50
2018-06-14T06:03:20.750Z,4.87
2018-06-14T06:05:48.381Z,4.87
2018-06-14T06:08:16.094Z,3.60
2018-06-14T06:10:43.685Z,4.50
2018-06-14T06:13:11.329Z,9.53
2018-06-14T06:15:38.836Z,8.20
2018-06-14T06:18:06.391Z,5.97
2018-06-14T06:20:34.059Z,6.00
2018-06-14T06:23:01.716Z,5.63
2018-06-14T06:25:29.220Z,5.57
2018-06-14T06:27:57.300Z,4.13
2018-06-14T06:30:25.112Z,10.97
2018-06-14T06:32:52.733Z,6.33
2018-06-14T06:35:20.320Z,3.97
2018-06-14T06:37:47.961Z,5.33
2018-06-14T06:40:15.569Z,4.27
2018-06-14T06:42:43.081Z,4.00
2018-06-14T06:45:10.692Z,4.83
2018-06-14T06:47:38.204Z,5.23
2018-06-14T06:50:05.862Z,7.07
2018-06-14T06:52:33.572Z,3.03
2018-06-14T06:55:01.174Z,4.17
2018-06-14T06:57:29.544Z,6.10
2018-06-14T06:59:57.062Z,9.50
2018-06-14T07:02:24.666Z,8.20
2018-06-14T07:04:52.266Z,5.47
2018-06-14T07:07:19.870Z,4.20
2018-06-14T07:09:47.510Z,3.07
2018-06-14T07:12:15.131Z,3.57
2018-06-14T07:14:42.801Z,4.27
2018-06-14T07:17:10.431Z,5.70
2018-06-14T07:19:38.117Z,2.57
2018-06-14T07:22:05.764Z,2.03
2018-06-14T07:24:33.400Z,2.90
2018-06-14T07:27:00.896Z,2.73
2018-06-14T07:29:28.529Z,4.57
2018-06-14T07:31:56.070Z,3.33
2018-06-14T07:34:23.712Z,3.13
2018-06-14T07:36:51.339Z,2.57
2018-06-14T07:39:18.959Z,3.07
2018-06-14T07:41:46.534Z,3.23
2018-06-14T07:44:14.120Z,3.57
2018-06-14T07:46:41.633Z,5.23
2018-06-14T07:49:09.198Z,3.23
2018-06-14T07:51:36.841Z,3.20
2018-06-14T07:54:04.490Z,3.23
2018-06-14T07:56:32.140Z,2.30
2018-06-14T07:58:59.720Z,6.23
2018-06-14T08:01:28.307Z,2.83
2018-06-14T08:03:55.852Z,4.10
2018-06-14T08:06:23.525Z,3.43
2018-06-14T08:08:50.964Z,3.83
2018-06-14T08:11:18.550Z,2.67
2018-06-14T08:13:46.186Z,4.23
2018-06-14T08:16:13.827Z,4.00
2018-06-14T08:18:41.305Z,2.63
2018-06-14T08:21:08.894Z,3.07
2018-06-14T08:23:36.524Z,2.10
2018-06-14T08:26:04.009Z,2.43
2018-06-14T08:28:31.645Z,1.93
2018-06-14T08:30:59.227Z,2.97
2018-06-14T08:33:26.826Z,3.50
2018-06-14T08:35:54.396Z,4.33
2018-06-14T08:38:22.010Z,2.27
2018-06-14T08:40:49.474Z,4.50
2018-06-14T08:43:16.984Z,5.00
2018-06-14T08:45:44.626Z,2.83
2018-06-14T08:48:12.315Z,2.47
2018-06-14T08:50:39.957Z,2.33
2018-06-14T08:53:07.570Z,5.23
2018-06-14T08:55:35.185Z,2.93
2018-06-14T08:58:02.751Z,3.60
2018-06-14T09:00:30.302Z,2.73
2018-06-14T09:02:57.870Z,4.07
2018-06-14T09:05:25.406Z,3.73
2018-06-14T09:07:53.821Z,4.30
2018-06-14T09:10:21.379Z,2.50
2018-06-14T09:12:49.039Z,5.40
2018-06-14T09:15:22.037Z,4.53
2018-06-14T09:17:49.679Z,2.67
2018-06-14T09:20:17.216Z,3.43
2018-06-14T09:22:45.456Z,3.00
2018-06-14T09:25:16.176Z,2.30
2018-06-14T09:27:45.220Z,1.63
2018-06-14T09:30:13.517Z,3.73
2018-06-14T09:32:42.031Z,2.50
2018-06-14T09:35:11.906Z,2.10
2018-06-14T09:37:40.240Z,3.80
2018-06-14T09:40:08.524Z,2.97
2018-06-14T09:42:36.430Z,2.20
2018-06-14T09:45:05.011Z,2.77
2018-06-14T09:47:33.360Z,2.97
2018-06-14T09:50:01.366Z,2.67
2018-06-14T09:52:29.300Z,4.27
2018-06-14T09:54:58.380Z,3.03
2018-06-14T09:59:52.256Z,3.83
2018-06-14T10:02:20.511Z,1.97
2018-06-14T10:04:48.123Z,3.50
2018-06-14T10:07:15.942Z,3.03
2018-06-14T10:09:43.544Z,2.93
2018-06-14T10:12:11.120Z,3.10
2018-06-14T10:14:38.752Z,2.80
2018-06-14T10:17:06.363Z,4.13
2018-06-14T10:19:34.098Z,2.43
2018-06-14T10:22:01.700Z,2.10
2018-06-14T10:24:29.300Z,2.43
2018-06-14T10:26:56.946Z,2.53
2018-06-14T10:29:24.597Z,4.77
2018-06-14T10:31:52.230Z,3.90
2018-06-14T10:34:19.911Z,3.33
2018-06-14T10:36:47.512Z,3.27
2018-06-14T10:39:15.138Z,3.10
2018-06-14T10:41:42.601Z,2.93
2018-06-14T10:44:10.423Z,3.23
2018-06-14T10:46:38.021Z,2.63
2018-06-14T10:49:05.708Z,3.23
2018-06-14T10:51:34.226Z,2.17
2018-06-14T10:54:01.928Z,2.23
2018-06-14T10:56:29.505Z,2.63
2018-06-14T10:58:57.103Z,2.67
2018-06-14T11:01:24.630Z,2.60
2018-06-14T11:03:52.296Z,4.53
2018-06-14T11:06:19.881Z,4.60
2018-06-14T11:08:47.482Z,2.97
2018-06-14T11:11:15.175Z,2.80
2018-06-14T11:13:42.871Z,2.10
2018-06-14T11:16:10.503Z,2.93
2018-06-14T11:18:38.156Z,2.47
2018-06-14T11:21:05.823Z,3.50
2018-06-14T11:23:33.442Z,3.27
2018-06-14T11:26:01.127Z,2.43
2018-06-14T11:28:28.791Z,3.73
2018-06-14T11:30:56.423Z,3.23
2018-06-14T11:33:23.932Z,2.43
2018-06-14T11:35:51.666Z,2.80
2018-06-14T11:38:19.303Z,4.10
2018-06-14T11:40:46.996Z,3.77
2018-06-14T11:43:14.663Z,2.47
2018-06-14T11:45:42.301Z,3.33
2018-06-14T11:48:09.957Z,4.47
2018-06-14T11:50:37.538Z,3.10
2018-06-14T11:53:05.138Z,1.90
2018-06-14T11:55:32.789Z,3.43
2018-06-14T11:58:00.450Z,2.73
2018-06-14T12:00:28.094Z,2.77
2018-06-14T12:02:55.772Z,3.17
2018-06-14T12:05:23.427Z,4.33
2018-06-14T12:07:51.099Z,3.73
2018-06-14T12:10:18.712Z,2.57
2018-06-14T12:12:46.470Z,4.07
2018-06-14T12:15:14.166Z,2.17
2018-06-14T12:17:42.699Z,5.17
2018-06-14T12:20:10.283Z,3.00
2018-06-14T12:22:37.949Z,3.60
2018-06-14T12:25:05.619Z,3.77
2018-06-14T12:27:33.261Z,5.03
2018-06-14T12:30:00.881Z,3.27
2018-06-14T12:32:28.403Z,4.27
2018-06-14T12:34:56.048Z,2.40
2018-06-14T12:37:23.672Z,4.13
2018-06-14T12:39:51.295Z,3.73
2018-06-14T12:42:18.864Z,6.50
2018-06-14T12:44:46.429Z,3.00
2018-06-14T12:47:14.034Z,3.80
2018-06-14T12:49:41.714Z,6.93
2018-06-14T12:52:09.308Z,2.93
2018-06-14T12:54:36.932Z,3.97
2018-06-14T12:57:04.823Z,2.27
2018-06-14T12:59:32.454Z,2.50
2018-06-14T13:02:00.069Z,3.77
2018-06-14T13:04:27.573Z,4.70
2018-06-14T13:06:55.253Z,2.20
2018-06-14T13:09:22.773Z,1.57
2018-06-14T13:11:50.450Z,1.93
2018-06-14T13:14:17.984Z,3.50
2018-06-14T13:16:45.626Z,3.30
2018-06-14T13:19:13.293Z,2.60
2018-06-14T13:21:40.956Z,3.70
2018-06-14T13:24:08.608Z,2.13
2018-06-14T13:26:36.305Z,2.80
2018-06-14T13:29:03.897Z,2.93
2018-06-14T13:31:31.592Z,2.83
2018-06-14T13:33:59.144Z,3.73
2018-06-14T13:36:26.860Z,3.03
2018-06-14T13:38:54.523Z,4.07
2018-06-14T13:41:22.158Z,2.83
2018-06-14T13:43:49.641Z,2.93
2018-06-14T13:46:17.352Z,1.77
2018-06-14T13:48:44.986Z,2.03
2018-06-14T13:51:12.613Z,3.90
2018-06-14T13:53:40.393Z,2.43
2018-06-14T13:56:07.888Z,2.37
2018-06-14T13:58:35.447Z,2.07
2018-06-14T14:01:03.164Z,2.63
2018-06-14T14:03:30.824Z,2.87
2018-06-14T14:05:58.529Z,2.53
2018-06-14T14:08:26.168Z,3.47
2018-06-14T14:10:53.883Z,2.93
2018-06-14T14:13:21.591Z,2.30
2018-06-14T14:15:49.224Z,3.67
2018-06-14T14:18:16.907Z,1.83
2018-06-14T14:20:44.578Z,1.90
2018-06-14T14:23:12.295Z,2.07
2018-06-14T14:25:40.023Z,2.73
2018-06-14T14:28:07.774Z,2.43
2018-06-14T14:30:35.492Z,2.40
2018-06-14T14:33:03.109Z,2.83
2018-06-14T14:35:30.693Z,3.63
2018-06-14T14:37:58.384Z,2.40
2018-06-14T14:40:26.243Z,4.37
2018-06-14T14:42:53.910Z,2.50
2018-06-14T14:45:21.537Z,2.83
2018-06-14T14:47:49.273Z,1.93
2018-06-14T14:50:17.179Z,3.50
2018-06-14T14:52:45.084Z,2.37
2018-06-14T14:55:12.881Z,4.80
2018-06-14T14:57:40.673Z,3.17
2018-06-14T15:00:08.283Z,3.23
2018-06-14T15:02:36.192Z,3.80
2018-06-14T15:05:04.151Z,3.47
2018-06-14T15:07:32.008Z,2.03
2018-06-14T15:09:59.736Z,2.50
2018-06-14T15:12:27.383Z,3.07
2018-06-14T15:14:55.036Z,2.30
2018-06-14T15:17:22.741Z,2.33
2018-06-14T15:19:50.436Z,3.60
2018-06-14T15:22:18.189Z,2.97
2018-06-14T15:24:45.669Z,2.93
2018-06-14T15:27:13.369Z,1.70
2018-06-14T15:29:41.173Z,3.17
2018-06-14T15:32:08.759Z,1.43
2018-06-14T15:34:36.364Z,2.27
2018-06-14T15:37:04.075Z,1.90
2018-06-14T15:39:31.829Z,3.23
2018-06-14T15:41:59.539Z,3.10
2018-06-14T15:44:27.187Z,2.57
2018-06-14T15:46:54.877Z,2.33
2018-06-14T15:49:22.692Z,3.50
2018-06-14T15:51:50.323Z,1.83
2018-06-14T15:54:18.173Z,2.67
2018-06-14T15:56:45.782Z,3.07
2018-06-14T15:59:14.627Z,3.77
2018-06-14T16:01:42.207Z,2.40
2018-06-14T16:04:09.990Z,3.53
2018-06-14T16:06:37.659Z,2.13
2018-06-14T16:09:07.734Z,3.00
2018-06-14T16:11:35.549Z,2.67
2018-06-14T16:14:03.144Z,2.73
2018-06-14T16:16:30.825Z,2.60
2018-06-14T16:18:58.429Z,2.97
2018-06-14T16:21:26.079Z,4.57
2018-06-14T16:23:53.742Z,2.37
2018-06-14T16:26:21.410Z,2.53
2018-06-14T16:28:49.075Z,2.33
2018-06-14T16:31:16.741Z,2.57
2018-06-14T16:33:44.419Z,3.77
2018-06-14T16:36:12.136Z,4.57
2018-06-14T16:38:39.669Z,3.43
2018-06-14T16:41:07.488Z,2.13
2018-06-14T16:43:35.409Z,2.17
2018-06-14T16:46:03.335Z,2.60
2018-06-14T16:48:30.741Z,3.97
2018-06-14T16:50:58.489Z,2.97
2018-06-14T16:53:26.308Z,1.73
2018-06-14T16:55:53.878Z,2.00
2018-06-14T16:58:21.444Z,2.53
2018-06-14T17:00:49.011Z,3.37
2018-06-14T17:03:16.668Z,3.27
2018-06-14T17:05:44.261Z,3.63
2018-06-14T17:08:12.036Z,2.67
2018-06-14T17:10:39.718Z,4.37
2018-06-14T17:13:07.369Z,1.93
2018-06-14T17:15:35.052Z,2.87
2018-06-14T17:18:02.802Z,3.27
2018-06-14T17:20:30.464Z,2.33
2018-06-14T17:22:58.205Z,2.37
2018-06-14T17:25:25.840Z,3.27
2018-06-14T17:27:53.459Z,4.47
2018-06-14T17:30:21.203Z,2.93
2018-06-14T17:32:48.842Z,3.97
2018-06-14T17:35:16.538Z,2.23
2018-06-14T17:37:44.256Z,2.53
2018-06-14T17:40:11.982Z,2.80
2018-06-14T17:42:39.745Z,1.83
2018-06-14T17:45:07.450Z,3.93
2018-06-14T17:47:35.093Z,2.60
2018-06-14T17:50:02.864Z,3.47
2018-06-14T17:52:30.518Z,4.43
2018-06-14T17:54:58.198Z,2.77
2018-06-14T17:57:25.983Z,2.30
2018-06-14T17:59:53.769Z,4.33
2018-06-14T18:02:21.485Z,3.07
2018-06-14T18:04:49.080Z,3.37
2018-06-14T18:07:16.891Z,2.47
2018-06-14T18:09:44.685Z,3.33
2018-06-14T18:12:12.405Z,3.67
2018-06-14T18:14:40.167Z,2.53
2018-06-14T18:17:07.679Z,2.93
2018-06-14T18:19:35.303Z,4.10
2018-06-14T18:22:02.899Z,3.03
2018-06-14T18:24:30.614Z,2.63
2018-06-14T18:26:58.289Z,2.60
2018-06-14T18:29:25.973Z,3.37
2018-06-14T18:31:53.645Z,3.30
2018-06-14T18:34:21.394Z,1.93
2018-06-14T18:36:49.050Z,2.87
2018-06-14T18:39:16.759Z,3.33
2018-06-14T18:41:44.521Z,3.97
2018-06-14T18:44:12.074Z,3.43
2018-06-14T18:46:39.613Z,2.93
2018-06-14T18:49:07.352Z,3.03
2018-06-14T18:51:35.296Z,2.50
2018-06-14T18:54:02.858Z,2.63
2018-06-14T18:56:30.685Z,3.00
2018-06-14T18:58:58.425Z,2.80
2018-06-14T19:01:26.136Z,3.53
2018-06-14T19:03:53.819Z,2.93
2018-06-14T19:06:22.349Z,5.97
2018-06-14T19:08:50.112Z,2.43
2018-06-14T19:11:17.849Z,3.70
2018-06-14T19:13:45.524Z,6.70
2018-06-14T19:16:22.491Z,3.37
2018-06-14T19:18:50.205Z,2.83
2018-06-14T19:21:18.116Z,3.73
2018-06-14T19:23:45.786Z,4.37
2018-06-14T19:26:13.608Z,3.27
2018-06-14T19:28:41.385Z,2.60
2018-06-14T19:31:09.095Z,5.23
2018-06-14T19:33:36.801Z,5.60
2018-06-14T19:36:04.426Z,4.30
2018-06-14T19:38:32.155Z,3.13
2018-06-14T19:40:59.894Z,2.87
2018-06-14T19:43:27.519Z,3.20
2018-06-14T19:45:55.243Z,3.40
2018-06-14T19:48:22.818Z,4.10
2018-06-14T19:50:50.570Z,3.83
2018-06-14T19:53:18.260Z,3.00
2018-06-14T19:55:45.902Z,2.93
2018-06-14T19:58:13.636Z,3.10
2018-06-14T20:00:41.303Z,4.07
2018-06-14T20:03:08.928Z,3.43
2018-06-14T20:05:36.593Z,3.33
2018-06-14T20:08:04.306Z,3.30
2018-06-14T20:10:32.013Z,3.80
2018-06-14T20:12:59.563Z,4.00
2018-06-14T20:15:27.194Z,3.07
2018-06-14T20:17:54.854Z,3.37
2018-06-14T20:20:22.444Z,4.80
2018-06-14T20:22:50.131Z,3.77
2018-06-14T20:25:20.165Z,4.27
2018-06-14T20:27:47.795Z,3.60
2018-06-14T20:30:15.319Z,4.20
2018-06-14T20:32:42.932Z,5.20
2018-06-14T20:35:11.596Z,3.70
2018-06-14T20:40:12.466Z,5.73
2018-06-14T20:42:40.198Z,3.77
2018-06-14T20:45:08.003Z,4.07
2018-06-14T20:47:35.631Z,4.00
2018-06-14T20:50:03.427Z,5.80
2018-06-14T20:52:31.076Z,3.53
2018-06-14T20:54:58.712Z,3.57
2018-06-14T20:57:26.511Z,4.33
2018-06-14T20:59:54.225Z,4.93
2018-06-14T21:02:22.092Z,3.10
2018-06-14T21:04:49.794Z,4.93
2018-06-14T21:07:17.450Z,6.20
2018-06-14T21:09:45.184Z,4.63
2018-06-14T21:12:12.919Z,3.80
2018-06-14T21:14:40.547Z,4.30
2018-06-14T21:17:08.244Z,4.67
2018-06-14T21:19:35.851Z,5.20
2018-06-14T21:22:03.551Z,5.63
2018-06-14T21:24:31.145Z,3.40
2018-06-14T21:26:58.803Z,4.87
2018-06-14T21:29:30.199Z,3.80
2018-06-14T21:31:59.669Z,5.37
2018-06-14T21:34:31.723Z,4.83
2018-06-14T21:36:59.427Z,3.90
2018-06-14T21:39:28.450Z,6.23
2018-06-14T21:42:03.054Z,3.33
2018-06-14T21:44:31.001Z,3.87
2018-06-14T21:46:59.710Z,4.30
2018-06-14T21:49:27.335Z,7.73
2018-06-14T21:51:55.501Z,6.53
2018-06-14T21:54:24.191Z,4.73
2018-06-14T21:56:51.830Z,4.70
2018-06-14T21:59:20.778Z,4.63
2018-06-14T22:01:48.947Z,4.33
2018-06-14T22:04:17.192Z,5.87
2018-06-14T22:06:45.046Z,5.87
2018-06-14T22:09:13.762Z,6.37
2018-06-14T22:11:41.235Z,4.80
2018-06-14T22:14:08.851Z,5.63
2018-06-14T22:16:36.450Z,6.00
2018-06-14T22:19:04.292Z,6.30
2018-06-14T22:21:31.875Z,6.10
2018-06-14T22:23:59.489Z,5.63
2018-06-14T22:26:27.209Z,8.00
2018-06-14T22:28:54.765Z,6.70
2018-06-14T22:31:22.347Z,5.47
2018-06-14T22:34:01.250Z,6.17
2018-06-14T22:36:28.850Z,5.57
2018-06-14T22:38:56.324Z,6.10
2018-06-14T22:41:25.687Z,6.53
2018-06-14T22:43:53.271Z,6.13
2018-06-14T22:46:20.905Z,7.43
2018-06-14T22:48:48.510Z,6.43
2018-06-14T22:51:20.975Z,4.63
2018-06-14T22:53:48.570Z,5.80
2018-06-14T22:56:17.540Z,6.33
2018-06-14T22:58:57.251Z,9.67
2018-06-14T23:01:46.055Z,6.53
2018-06-14T23:04:30.819Z,7.27
2018-06-14T23:07:11.030Z,5.67
2018-06-14T23:10:19.686Z,6.10
2018-06-14T23:12:47.309Z,9.10
2018-06-14T23:15:15.540Z,5.33
2018-06-14T23:17:44.096Z,7.00
2018-06-14T23:20:11.691Z,6.50
2018-06-14T23:22:39.282Z,6.47
2018-06-14T23:25:06.931Z,8.60
2018-06-14T23:27:34.541Z,4.63
2018-06-14T23:30:02.021Z,8.23
2018-06-14T23:32:29.905Z,6.83
2018-06-14T23:34:57.590Z,4.77
2018-06-14T23:37:25.876Z,6.97
2018-06-14T23:39:53.641Z,5.17
2018-06-14T23:42:21.640Z,5.67
2018-06-14T23:44:49.237Z,6.53
2018-06-14T23:47:16.857Z,7.00
2018-06-14T23:49:44.372Z,5.97
2018-06-14T23:52:11.954Z,6.47
2018-06-14T23:54:39.614Z,4.43
2018-06-14T23:57:07.220Z,6.10
2018-06-14T23:59:34.894Z,5.70
